Etusivu
METAR-TAF:

METAR-TAF

Lentoasemat :

Kuwaitin kansainvälinen lentoasema

Kuwait, Kuwait

Leveyspiiri: 29-13N, Pituuspiiri: 047-59E, korkeus merenpinnasta: 55 m

Tämänhetkinen sää

Tämä raportti tehtiin 16 minuuttia sitten, kello 19.00 UTC
Tuuli 10 kn luoteesta
Lämpötila 39°C
Kosteus 11%
Ilmanpaine 999 hPa
Näkyvyys 10 km tai enemmän
ei pilviä alle 1500 m:ssä eikä cumulonimbus-pilviä

METAR: OKBK 171900Z 31010KT CAVOK 39/03 Q0999 NOSIG

Aika: 22:16 (19:16 UTC)

Sääennuste

Tämä raportti tehtiin 2 tuntia ja 31 minuuttia sitten, kello 16.45 UTC
Ennuste voimassa 17. päivästä klo 18 UTC - 18. päivään klo 24 UTC
Tuuli 15 kn pohjoisen/luoteesta
Näkyvyys: 8000 m
selkeää

TAF: OKBK 171645Z 1718/1824 34015KT 8000 SKC

Säähavainnot ja -ennusteet yli 4000 lentoasemalta (METAR- ja TAF-raportit).

Käytössä olevat sääasemat on merkitty karttaan keltaisilla ja punaisilla pisteillä.

Aseta hiiri pisteen päälle nähdäksesi sääaseman nimen.

Klikkaa sitten nähdäksesi säähavainnot ja -ennusteet.

Kartan vaihtaminen: klikkaa mustalla rastilla varustettuja vihreitä pisteitä, niin voit zoomata sisään; viivalla varustettua vihreää pistettä, niin voit zoomata ulos tai vihreitä nuolia, niin pääset viereisille kartoille.


METAR-TAF: